Time;durP1;ratioP1;P1;durP2;ratioP2;P2;SDS_P1;SDS_P2;PMS_P1;PMS_P2;Temp;Humidity;BMP_temperature;BMP_pressure;BME280_temperature;BME280_humidity;BME280_pressure;Samples;Min_cycle;Max_cycle;Signal;HPM_P1;HPM_P2
2022/03/06 00:01:28;;;;;;;10.55;7.63;;;6.60;96.70;;;;;;5006177;28;20068;-81
2022/03/06 00:03:57;;;;;;;12.30;7.68;;;6.40;96.70;;;;;;5016010;28;20057;-81
2022/03/06 00:06:25;;;;;;;11.60;7.05;;;6.60;96.70;;;;;;5005758;28;20471;-81
2022/03/06 00:08:54;;;;;;;12.23;7.82;;;6.60;96.70;;;;;;5012178;28;20037;-81
2022/03/06 00:11:23;;;;;;;13.10;8.18;;;6.80;96.70;;;;;;5006415;28;20052;-82
2022/03/06 00:13:51;;;;;;;12.57;7.93;;;6.80;96.70;;;;;;5014179;28;20124;-82
2022/03/06 00:16:19;;;;;;;10.80;7.03;;;6.80;96.70;;;;;;5009680;28;20062;-82
2022/03/06 00:18:47;;;;;;;12.80;8.38;;;6.90;96.70;;;;;;4993845;28;20088;-81
2022/03/06 00:21:15;;;;;;;13.93;8.10;;;6.90;96.70;;;;;;4996474;28;20580;-81
2022/03/06 00:23:43;;;;;;;14.07;8.80;;;6.90;96.70;;;;;;5010799;28;20565;-82
2022/03/06 00:26:13;;;;;;;12.73;8.38;;;7.00;96.70;;;;;;4990913;28;20080;-81
2022/03/06 00:28:42;;;;;;;13.57;7.55;;;7.00;96.70;;;;;;4993597;28;20557;-81
2022/03/06 00:31:12;;;;;;;15.15;8.63;;;6.90;96.70;;;;;;4989628;28;20056;-82
2022/03/06 00:33:40;;;;;;;13.57;8.57;;;6.90;96.70;;;;;;5008552;28;20038;-82
2022/03/06 00:36:08;;;;;;;14.00;8.48;;;6.90;96.70;;;;;;5005963;28;20112;-81
2022/03/06 00:38:37;;;;;;;10.38;6.65;;;6.80;96.70;;;;;;5011307;28;20454;-82
2022/03/06 00:41:05;;;;;;;10.95;6.90;;;6.80;96.70;;;;;;5004010;28;20046;-81
2022/03/06 00:43:34;;;;;;;10.88;6.28;;;6.90;96.70;;;;;;5013411;28;20048;-82
2022/03/06 00:46:03;;;;;;;9.48;6.18;;;6.90;96.70;;;;;;5004552;28;20046;-82
2022/03/06 00:48:31;;;;;;;10.40;6.32;;;6.90;96.70;;;;;;5011145;28;20052;-81
2022/03/06 00:50:59;;;;;;;9.05;5.40;;;6.90;96.70;;;;;;5003407;28;20034;-81
2022/03/06 00:53:28;;;;;;;8.88;5.72;;;6.90;96.70;;;;;;5000221;28;20108;-82
2022/03/06 00:55:56;;;;;;;8.90;5.75;;;6.70;96.70;;;;;;5004674;28;20137;-81
2022/03/06 00:58:25;;;;;;;7.97;5.68;;;6.90;96.70;;;;;;5013702;28;20034;-82
2022/03/06 01:00:54;;;;;;;10.93;5.82;;;7.00;96.70;;;;;;5010473;28;20133;-79
2022/03/06 01:03:23;;;;;;;9.45;6.03;;;7.00;96.70;;;;;;5012302;28;20163;-82
2022/03/06 01:05:51;;;;;;;7.90;5.25;;;7.00;96.70;;;;;;4992831;28;20526;-81
2022/03/06 01:08:20;;;;;;;7.60;4.82;;;7.00;96.70;;;;;;5009278;28;20042;-82
2022/03/06 01:10:49;;;;;;;9.48;5.40;;;7.00;96.70;;;;;;4987901;28;20064;-82
2022/03/06 01:13:19;;;;;;;9.55;5.30;;;7.00;96.70;;;;;;5004786;28;20042;-82
2022/03/06 01:15:48;;;;;;;7.50;4.85;;;7.10;96.70;;;;;;5008722;28;20241;-80
2022/03/06 01:18:20;;;;;;;7.95;5.45;;;7.10;96.70;;;;;;5012105;28;20041;-82
2022/03/06 01:20:48;;;;;;;8.80;5.25;;;7.00;96.70;;;;;;4990882;28;20077;-81
2022/03/06 01:23:16;;;;;;;7.35;5.28;;;6.80;96.70;;;;;;4989717;28;20111;-81
2022/03/06 01:25:44;;;;;;;10.13;5.50;;;6.90;96.70;;;;;;5010077;28;20052;-82
2022/03/06 01:28:12;;;;;;;8.13;5.30;;;6.90;96.70;;;;;;5014426;28;20049;-82
2022/03/06 01:30:40;;;;;;;7.68;5.60;;;6.90;96.70;;;;;;5009557;28;20051;-82
2022/03/06 01:33:08;;;;;;;10.75;6.50;;;6.90;96.70;;;;;;5006407;28;20060;-81
2022/03/06 01:35:38;;;;;;;10.55;6.10;;;6.90;96.70;;;;;;4997732;28;20138;-91
2022/03/06 01:38:06;;;;;;;12.93;6.78;;;6.90;96.70;;;;;;5018071;28;20607;-89
2022/03/06 01:40:34;;;;;;;11.05;6.60;;;6.90;96.70;;;;;;4986694;28;20508;-87
2022/03/06 01:43:02;;;;;;;12.18;6.25;;;6.80;96.70;;;;;;4992590;28;20050;-89
2022/03/06 01:45:30;;;;;;;8.50;5.72;;;6.80;96.70;;;;;;5017838;28;20056;-91
2022/03/06 01:47:59;;;;;;;11.02;6.70;;;6.70;96.70;;;;;;5007458;28;20042;-87
2022/03/06 01:50:30;;;;;;;9.77;6.10;;;6.60;96.70;;;;;;4989618;28;20053;-87
2022/03/06 01:53:03;;;;;;;10.98;6.07;;;6.60;96.70;;;;;;5005546;28;20061;-87
2022/03/06 01:55:31;;;;;;;9.30;5.88;;;6.50;96.70;;;;;;5016450;28;20233;-87
2022/03/06 01:58:05;;;;;;;10.70;6.82;;;6.60;96.70;;;;;;5014302;28;20484;-88
2022/03/06 02:00:35;;;;;;;8.88;6.13;;;6.60;96.70;;;;;;5010319;28;20053;-87
2022/03/06 02:03:04;;;;;;;11.27;6.40;;;6.40;96.70;;;;;;5005455;28;20092;-88
2022/03/06 02:05:32;;;;;;;10.75;6.38;;;6.40;96.70;;;;;;5009626;28;20117;-86
2022/03/06 02:08:02;;;;;;;9.80;6.65;;;6.30;96.70;;;;;;5008825;28;20076;-87
2022/03/06 02:10:30;;;;;;;10.75;6.65;;;6.30;96.70;;;;;;5015279;28;20593;-88
2022/03/06 02:12:58;;;;;;;8.93;5.63;;;6.40;96.70;;;;;;4991170;28;20042;-91
2022/03/06 02:15:26;;;;;;;10.73;6.88;;;6.20;96.70;;;;;;5011072;28;20675;-90
2022/03/06 02:17:54;;;;;;;9.25;5.68;;;6.10;96.70;;;;;;5020617;28;20045;-89
2022/03/06 02:20:24;;;;;;;9.27;6.53;;;6.20;96.70;;;;;;5013487;28;20053;-89
2022/03/06 02:22:57;;;;;;;10.30;6.70;;;6.20;96.70;;;;;;5011271;28;20559;-88
2022/03/06 02:25:26;;;;;;;12.57;6.90;;;6.30;96.70;;;;;;5015815;28;20041;-89
2022/03/06 02:27:57;;;;;;;12.82;6.40;;;6.30;96.70;;;;;;5010679;28;20041;-88
2022/03/06 02:30:27;;;;;;;11.90;6.72;;;6.30;96.70;;;;;;5006583;28;20054;-87
2022/03/06 02:32:59;;;;;;;10.32;6.13;;;6.40;96.70;;;;;;4997718;28;20065;-89
2022/03/06 02:35:28;;;;;;;10.55;6.72;;;6.30;96.70;;;;;;5014981;28;20080;-90
2022/03/06 02:37:57;;;;;;;10.07;6.35;;;6.30;96.70;;;;;;4971705;28;20046;-88
2022/03/06 02:40:25;;;;;;;10.68;6.70;;;6.30;96.70;;;;;;4973415;28;20047;-89
2022/03/06 02:42:55;;;;;;;9.82;6.30;;;6.40;96.70;;;;;;4981953;28;20057;-87
2022/03/06 02:45:25;;;;;;;10.30;6.47;;;6.40;96.70;;;;;;4982224;28;20093;-87
2022/03/06 02:47:55;;;;;;;13.10;6.68;;;6.50;96.70;;;;;;4973259;28;20038;-89
2022/03/06 02:50:26;;;;;;;11.32;6.53;;;6.60;96.70;;;;;;4969539;28;20047;-81
2022/03/06 02:52:58;;;;;;;10.90;6.80;;;6.60;96.70;;;;;;4957375;28;20094;-80
2022/03/06 02:55:26;;;;;;;9.27;6.50;;;6.70;96.70;;;;;;4971455;28;20721;-81
2022/03/06 02:57:55;;;;;;;11.35;6.80;;;6.70;96.70;;;;;;4969580;28;20046;-80
2022/03/06 03:00:25;;;;;;;9.57;6.57;;;6.80;96.70;;;;;;4968606;28;20644;-81
2022/03/06 03:02:54;;;;;;;11.23;7.13;;;6.80;96.70;;;;;;4972339;28;20043;-81
2022/03/06 03:05:22;;;;;;;10.15;6.45;;;6.80;96.70;;;;;;4972009;28;20418;-80
2022/03/06 03:07:53;;;;;;;10.60;7.13;;;6.80;96.70;;;;;;4965902;28;20117;-81
2022/03/06 03:10:24;;;;;;;9.77;6.47;;;6.60;96.70;;;;;;4972011;28;20693;-81
2022/03/06 03:12:53;;;;;;;10.73;6.85;;;6.70;96.70;;;;;;4971214;28;20051;-80
2022/03/06 03:15:21;;;;;;;9.90;6.45;;;6.80;96.70;;;;;;4960884;28;20057;-81
2022/03/06 03:17:50;;;;;;;11.30;7.13;;;6.80;96.70;;;;;;4964670;28;20054;-81
2022/03/06 03:20:17;;;;;;;10.45;7.20;;;6.60;96.70;;;;;;4955775;28;20041;-81
2022/03/06 03:22:46;;;;;;;12.43;7.10;;;6.50;96.70;;;;;;4982441;28;20065;-81
2022/03/06 03:25:14;;;;;;;13.48;8.18;;;6.50;96.70;;;;;;4974438;28;21009;-79
2022/03/06 03:27:44;;;;;;;12.07;8.18;;;6.30;96.70;;;;;;4967268;28;20455;-81
2022/03/06 03:30:12;;;;;;;12.02;7.50;;;6.30;96.70;;;;;;4960545;28;20051;-81
2022/03/06 03:32:40;;;;;;;11.90;6.82;;;6.30;96.70;;;;;;4974821;28;20097;-80
2022/03/06 03:35:09;;;;;;;11.98;7.68;;;6.40;96.70;;;;;;4967474;28;20523;-81
2022/03/06 03:37:37;;;;;;;10.43;7.32;;;6.30;96.70;;;;;;4986817;28;20050;-81
2022/03/06 03:40:06;;;;;;;12.32;7.47;;;6.30;96.70;;;;;;5005527;28;20050;-80
2022/03/06 03:42:36;;;;;;;12.70;7.78;;;6.00;96.70;;;;;;5001644;28;20046;-91
2022/03/06 03:45:06;;;;;;;12.15;7.72;;;5.90;96.70;;;;;;5016600;28;20037;-90
2022/03/06 03:47:35;;;;;;;10.60;7.95;;;5.90;96.70;;;;;;5016749;28;20052;-89
2022/03/06 03:50:04;;;;;;;11.13;7.15;;;5.80;96.70;;;;;;5022110;28;20046;-91
2022/03/06 03:52:32;;;;;;;10.52;7.78;;;5.80;96.70;;;;;;5012290;28;20045;-87
2022/03/06 03:55:00;;;;;;;14.35;7.68;;;5.80;96.70;;;;;;4996624;28;20034;-91
2022/03/06 03:57:28;;;;;;;12.45;7.82;;;5.80;96.70;;;;;;5013242;28;20423;-90
2022/03/06 03:59:56;;;;;;;12.27;7.97;;;5.90;96.70;;;;;;4992239;28;20046;-89
2022/03/06 04:02:26;;;;;;;12.25;8.57;;;5.90;96.70;;;;;;5007203;28;20455;-88
2022/03/06 04:04:54;;;;;;;11.43;7.50;;;5.90;96.70;;;;;;4993510;28;20041;-87
2022/03/06 04:07:22;;;;;;;16.90;8.23;;;6.00;96.70;;;;;;5011857;28;20045;-89
2022/03/06 04:09:50;;;;;;;12.00;7.80;;;6.00;96.70;;;;;;5013613;28;20054;-90
2022/03/06 04:12:18;;;;;;;15.35;8.27;;;5.90;96.70;;;;;;5009291;28;20100;-91
2022/03/06 04:14:50;;;;;;;13.30;7.50;;;5.90;96.70;;;;;;5004700;28;20042;-90
2022/03/06 04:17:18;;;;;;;12.23;8.05;;;5.90;96.70;;;;;;4998521;28;20042;-89
2022/03/06 04:19:47;;;;;;;13.07;8.15;;;5.90;96.70;;;;;;5012897;28;20054;-90
2022/03/06 04:22:16;;;;;;;13.98;7.72;;;5.80;96.70;;;;;;5015809;28;20702;-89
2022/03/06 04:24:43;;;;;;;12.63;7.65;;;5.80;96.70;;;;;;5015024;28;20038;-90
2022/03/06 04:27:11;;;;;;;12.95;8.10;;;6.00;96.70;;;;;;4997526;28;20038;-91
2022/03/06 04:29:40;;;;;;;14.15;7.88;;;5.90;96.70;;;;;;5007968;28;20054;-90
2022/03/06 04:32:08;;;;;;;12.93;7.82;;;5.90;96.70;;;;;;5004477;28;20101;-90
2022/03/06 04:34:36;;;;;;;13.27;8.15;;;5.90;96.70;;;;;;5007779;28;20045;-89
2022/03/06 04:37:06;;;;;;;11.77;7.50;;;5.80;96.70;;;;;;5015887;28;20058;-90
2022/03/06 04:39:36;;;;;;;13.75;8.63;;;5.80;96.70;;;;;;5020212;28;20399;-87
2022/03/06 04:42:05;;;;;;;12.50;8.23;;;5.80;96.70;;;;;;5008450;28;20042;-87
2022/03/06 04:44:33;;;;;;;12.32;8.50;;;5.70;96.70;;;;;;5011154;28;20046;-88
2022/03/06 04:47:01;;;;;;;13.65;8.05;;;5.60;96.70;;;;;;5002371;28;20436;-91
2022/03/06 04:49:29;;;;;;;13.45;8.65;;;5.50;96.70;;;;;;5013870;28;20132;-91
2022/03/06 04:51:57;;;;;;;13.07;7.82;;;5.40;96.70;;;;;;4990560;28;20038;-90
2022/03/06 04:54:26;;;;;;;14.60;8.35;;;5.30;96.70;;;;;;5009791;28;20069;-90
2022/03/06 04:56:54;;;;;;;12.15;7.85;;;5.40;96.70;;;;;;5012579;28;20084;-91
2022/03/06 04:59:22;;;;;;;12.30;8.30;;;5.30;96.70;;;;;;5009410;28;20042;-87
2022/03/06 05:01:50;;;;;;;11.93;8.13;;;5.20;96.70;;;;;;5009164;28;20053;-81
2022/03/06 05:04:19;;;;;;;11.95;7.93;;;5.30;96.70;;;;;;5009333;28;20495;-82
2022/03/06 05:06:47;;;;;;;12.48;8.23;;;5.30;96.70;;;;;;4991791;28;20063;-81
2022/03/06 05:09:15;;;;;;;13.18;8.50;;;5.20;96.70;;;;;;5007100;28;21020;-81
2022/03/06 05:11:44;;;;;;;14.07;7.97;;;5.20;96.70;;;;;;5008125;28;20475;-81
2022/03/06 05:14:12;;;;;;;13.98;8.00;;;5.10;96.70;;;;;;5009611;28;20656;-81
2022/03/06 05:16:40;;;;;;;15.75;8.52;;;5.00;96.70;;;;;;4991844;28;20084;-80
2022/03/06 05:19:09;;;;;;;13.82;8.27;;;4.90;96.70;;;;;;5007793;28;20237;-81
2022/03/06 05:21:37;;;;;;;14.25;8.20;;;4.90;96.70;;;;;;4995996;28;20563;-81
2022/03/06 05:24:06;;;;;;;13.02;7.90;;;4.90;96.70;;;;;;5001700;28;20116;-81
2022/03/06 05:26:34;;;;;;;13.25;8.50;;;5.00;96.70;;;;;;5013689;28;20514;-82
2022/03/06 05:29:04;;;;;;;13.32;8.00;;;5.00;96.70;;;;;;5006280;28;20145;-82
2022/03/06 05:31:32;;;;;;;15.50;8.90;;;5.00;96.70;;;;;;5013155;28;20154;-81
2022/03/06 05:34:01;;;;;;;14.60;8.85;;;5.20;96.70;;;;;;5008932;28;20045;-81
2022/03/06 05:36:29;;;;;;;15.70;8.57;;;5.30;96.70;;;;;;4993495;28;20450;-81
2022/03/06 05:38:57;;;;;;;13.68;8.32;;;5.30;96.70;;;;;;5002942;28;20120;-81
2022/03/06 05:41:25;;;;;;;16.45;9.55;;;5.30;96.70;;;;;;5007427;28;20056;-81
2022/03/06 05:43:54;;;;;;;14.82;9.13;;;5.40;96.70;;;;;;4997197;28;20050;-82
2022/03/06 05:46:24;;;;;;;14.57;8.70;;;5.40;96.70;;;;;;5015508;28;20038;-81
2022/03/06 05:48:52;;;;;;;15.15;9.45;;;5.30;96.70;;;;;;4999085;28;20504;-81
2022/03/06 05:51:21;;;;;;;14.98;9.77;;;5.30;96.70;;;;;;5018696;28;20041;-81
2022/03/06 05:53:49;;;;;;;12.77;8.43;;;5.10;96.70;;;;;;5011047;28;20083;-81
2022/03/06 05:56:17;;;;;;;13.02;7.78;;;5.00;96.70;;;;;;4999537;28;20129;-81
2022/03/06 05:58:46;;;;;;;17.92;9.43;;;5.00;96.70;;;;;;5010307;28;20048;-81
2022/03/06 06:01:16;;;;;;;14.50;9.60;;;5.20;96.70;;;;;;5008624;28;20088;-81
2022/03/06 06:03:47;;;;;;;17.35;9.38;;;5.10;96.70;;;;;;5014530;28;20041;-81
2022/03/06 06:06:15;;;;;;;14.95;9.27;;;5.30;96.70;;;;;;5007091;28;20050;-81
2022/03/06 06:08:43;;;;;;;18.73;10.55;;;5.30;96.70;;;;;;4997505;28;20041;-81
2022/03/06 06:11:11;;;;;;;16.15;9.10;;;5.20;96.70;;;;;;5012689;28;20070;-81
2022/03/06 06:13:39;;;;;;;14.52;9.38;;;5.40;96.70;;;;;;5007451;28;20519;-81
2022/03/06 06:16:08;;;;;;;16.30;9.57;;;5.50;96.70;;;;;;5008297;28;20042;-81
2022/03/06 06:18:36;;;;;;;15.00;8.77;;;5.60;96.70;;;;;;5007977;28;20046;-81
2022/03/06 06:21:06;;;;;;;17.30;10.68;;;5.50;96.70;;;;;;5017518;28;20608;-81
2022/03/06 06:23:35;;;;;;;18.35;11.07;;;5.60;96.70;;;;;;4996141;28;20086;-81
2022/03/06 06:26:03;;;;;;;17.40;11.25;;;5.60;96.70;;;;;;4982621;28;20034;-82
2022/03/06 06:28:32;;;;;;;20.63;11.77;;;5.60;96.70;;;;;;4990872;28;20092;-81
2022/03/06 06:31:00;;;;;;;19.58;11.63;;;5.60;96.70;;;;;;5015131;28;20530;-80
2022/03/06 06:33:29;;;;;;;20.02;12.27;;;5.60;96.70;;;;;;5010209;28;20052;-81
2022/03/06 06:35:57;;;;;;;22.33;12.52;;;5.60;96.70;;;;;;5010377;28;20053;-81
2022/03/06 06:38:27;;;;;;;21.05;12.10;;;5.60;96.70;;;;;;5017623;28;20040;-81
2022/03/06 06:40:56;;;;;;;16.50;11.23;;;5.70;96.70;;;;;;5009630;28;20057;-82
2022/03/06 06:43:24;;;;;;;19.10;11.13;;;5.70;96.70;;;;;;4997245;28;20479;-81
2022/03/06 06:45:53;;;;;;;20.95;12.27;;;5.80;96.70;;;;;;5007801;28;20070;-81
2022/03/06 06:48:21;;;;;;;17.33;11.63;;;5.80;96.70;;;;;;5010684;28;20883;-79
2022/03/06 06:50:50;;;;;;;21.70;12.23;;;5.80;96.70;;;;;;4992600;28;20526;-81
2022/03/06 06:53:18;;;;;;;23.23;12.88;;;5.90;96.70;;;;;;5004405;28;20053;-82
2022/03/06 06:55:48;;;;;;;21.75;12.30;;;6.00;96.70;;;;;;4983959;28;20476;-79
2022/03/06 06:58:16;;;;;;;18.80;12.27;;;6.00;96.70;;;;;;5013072;28;20066;-81
2022/03/06 07:00:45;;;;;;;21.05;11.68;;;6.00;96.70;;;;;;5018036;28;20438;-81
2022/03/06 07:03:13;;;;;;;17.02;11.60;;;6.10;96.70;;;;;;5001777;28;20132;-81
2022/03/06 07:05:44;;;;;;;17.25;10.60;;;6.20;96.70;;;;;;5003568;28;20132;-80
2022/03/06 07:08:13;;;;;;;19.88;12.50;;;6.30;96.70;;;;;;5001214;28;20075;-81
2022/03/06 07:10:41;;;;;;;19.00;12.57;;;6.30;96.70;;;;;;5014206;28;20050;-82
2022/03/06 07:13:11;;;;;;;19.70;13.05;;;6.40;96.70;;;;;;5010544;28;20049;-81
2022/03/06 07:15:39;;;;;;;18.55;12.93;;;6.50;96.70;;;;;;4996245;28;20045;-82
2022/03/06 07:18:08;;;;;;;19.75;12.82;;;6.50;96.70;;;;;;5013728;28;20128;-81
2022/03/06 07:20:36;;;;;;;20.42;12.38;;;6.70;96.70;;;;;;5009896;28;20081;-81
2022/03/06 07:23:06;;;;;;;18.42;12.82;;;6.80;96.70;;;;;;4996020;28;20908;-82
2022/03/06 07:25:34;;;;;;;17.80;11.93;;;6.80;96.70;;;;;;5009141;28;20104;-82
2022/03/06 07:28:04;;;;;;;17.23;12.38;;;6.80;96.70;;;;;;5015078;28;20041;-82
2022/03/06 07:30:34;;;;;;;19.52;11.93;;;6.90;96.70;;;;;;5015483;28;20065;-80
2022/03/06 07:33:02;;;;;;;14.18;10.05;;;6.90;96.70;;;;;;5004834;28;20546;-81
2022/03/06 07:35:30;;;;;;;15.18;9.38;;;6.90;96.70;;;;;;4986997;28;20514;-81
2022/03/06 07:37:59;;;;;;;11.90;8.25;;;6.90;96.70;;;;;;4990319;28;20092;-82
2022/03/06 07:40:27;;;;;;;10.70;6.95;;;7.00;96.70;;;;;;5009257;28;20487;-82
2022/03/06 07:42:58;;;;;;;12.85;7.47;;;7.00;96.70;;;;;;5013629;28;20577;-84
2022/03/06 07:45:27;;;;;;;11.45;7.35;;;7.10;96.70;;;;;;5003094;28;20046;-80
2022/03/06 07:47:56;;;;;;;13.73;7.32;;;7.20;96.70;;;;;;4997536;28;20495;-82
2022/03/06 07:50:26;;;;;;;12.20;7.65;;;7.20;96.70;;;;;;4991452;28;20060;-82
2022/03/06 07:52:56;;;;;;;11.25;7.57;;;7.30;96.70;;;;;;4996888;28;20041;-81
2022/03/06 07:55:24;;;;;;;10.40;6.88;;;7.40;96.70;;;;;;5008684;28;20046;-82
2022/03/06 07:57:53;;;;;;;10.75;7.03;;;7.40;96.70;;;;;;5010299;28;20080;-82
2022/03/06 08:00:21;;;;;;;11.10;7.38;;;7.40;96.70;;;;;;5008476;28;20042;-83
2022/03/06 08:02:49;;;;;;;10.93;7.25;;;7.40;96.70;;;;;;5010570;28;20038;-82
2022/03/06 08:05:19;;;;;;;11.20;6.78;;;7.50;96.70;;;;;;5006327;28;20046;-82
2022/03/06 08:07:48;;;;;;;9.23;6.43;;;7.50;96.70;;;;;;5015694;28;20045;-82
2022/03/06 08:10:16;;;;;;;12.50;7.57;;;7.60;96.70;;;;;;5014403;28;20050;-82
2022/03/06 08:12:48;;;;;;;11.98;7.68;;;7.60;96.70;;;;;;5008412;28;20540;-82
2022/03/06 08:15:17;;;;;;;12.35;7.05;;;7.60;96.70;;;;;;5017859;28;20075;-81
2022/03/06 08:17:45;;;;;;;10.73;6.47;;;7.70;96.70;;;;;;4993846;28;20038;-80
2022/03/06 08:20:14;;;;;;;10.27;6.50;;;7.80;96.70;;;;;;5007622;28;20464;-81
2022/03/06 08:22:44;;;;;;;10.35;6.75;;;7.80;96.70;;;;;;5011361;28;20048;-82
2022/03/06 08:25:12;;;;;;;10.32;6.55;;;7.90;96.70;;;;;;5009343;28;20081;-83
2022/03/06 08:27:40;;;;;;;10.70;6.82;;;7.90;96.70;;;;;;4996056;28;20045;-83
2022/03/06 08:30:09;;;;;;;11.35;7.18;;;8.00;96.70;;;;;;4990859;28;21540;-82
2022/03/06 08:32:38;;;;;;;10.80;7.32;;;8.10;96.70;;;;;;5003304;28;20168;-82
2022/03/06 08:35:07;;;;;;;11.50;6.47;;;8.10;96.70;;;;;;5009505;28;20052;-92
2022/03/06 08:37:36;;;;;;;9.32;6.05;;;8.20;96.70;;;;;;5016045;28;20058;-90
2022/03/06 08:40:08;;;;;;;11.30;6.88;;;8.20;96.70;;;;;;5006120;28;20048;-92
2022/03/06 08:42:37;;;;;;;10.25;6.68;;;8.20;96.70;;;;;;5015366;28;20076;-92
2022/03/06 08:45:06;;;;;;;11.38;6.38;;;8.20;96.70;;;;;;5009746;28;20045;-89
2022/03/06 08:47:35;;;;;;;9.70;6.07;;;8.20;96.70;;;;;;4999432;28;20136;-90
2022/03/06 08:50:05;;;;;;;8.77;6.20;;;8.30;96.70;;;;;;5004559;28;20033;-90
2022/03/06 08:52:33;;;;;;;9.10;5.88;;;8.30;96.40;;;;;;5005844;28;20049;-89
2022/03/06 08:55:02;;;;;;;9.55;6.32;;;8.30;96.10;;;;;;5020909;28;20067;-93
2022/03/06 08:57:32;;;;;;;8.35;5.47;;;8.40;96.40;;;;;;5009912;28;20049;-92
2022/03/06 09:00:00;;;;;;;9.02;5.78;;;8.50;96.70;;;;;;5018056;28;20041;-92
2022/03/06 09:02:29;;;;;;;11.05;5.80;;;8.50;96.40;;;;;;5011677;28;20048;-93
2022/03/06 09:04:57;;;;;;;10.32;5.82;;;8.50;96.40;;;;;;4992488;28;20073;-84
2022/03/06 09:07:27;;;;;;;8.73;6.32;;;8.50;96.50;;;;;;5010259;28;20055;-87
2022/03/06 09:10:01;;;;;;;10.18;6.15;;;8.50;96.50;;;;;;4998862;28;20045;-91
2022/03/06 09:12:40;;;;;;;9.07;6.50;;;8.70;96.70;;;;;;4999799;28;20059;-87
2022/03/06 09:15:10;;;;;;;8.43;5.72;;;8.80;96.10;;;;;;5018213;28;20037;-91
2022/03/06 09:17:38;;;;;;;9.32;5.93;;;8.80;95.80;;;;;;5014383;28;20092;-88
2022/03/06 09:20:07;;;;;;;12.10;6.47;;;8.80;95.50;;;;;;5000212;28;20046;-85
2022/03/06 09:22:36;;;;;;;11.57;6.43;;;8.80;95.40;;;;;;5012155;28;20046;-93
2022/03/06 09:25:05;;;;;;;9.85;6.95;;;8.80;95.40;;;;;;4993795;28;20049;-91
2022/03/06 09:27:36;;;;;;;9.63;6.38;;;8.90;95.50;;;;;;5003494;28;20129;-91
2022/03/06 09:30:07;;;;;;;9.18;5.97;;;8.90;95.60;;;;;;4996490;28;20048;-87
2022/03/06 09:32:36;;;;;;;10.90;7.28;;;8.90;94.70;;;;;;5009448;28;20054;-92
2022/03/06 09:35:05;;;;;;;11.50;5.85;;;8.90;94.50;;;;;;5008807;28;20042;-88
2022/03/06 09:37:34;;;;;;;9.57;5.78;;;9.00;93.90;;;;;;5008564;28;20054;-92
2022/03/06 09:40:19;;;;;;;11.90;6.47;;;9.10;93.50;;;;;;5138317;27;20871;-91
2022/03/06 09:42:48;;;;;;;11.23;6.47;;;9.20;93.60;;;;;;5135618;27;20481;-89
2022/03/06 09:45:17;;;;;;;11.70;6.65;;;9.30;94.20;;;;;;5124530;27;20043;-88
2022/03/06 09:47:45;;;;;;;8.82;6.45;;;9.40;94.90;;;;;;5123883;27;20858;-87
2022/03/06 09:50:15;;;;;;;11.82;6.30;;;9.60;95.20;;;;;;5118293;27;20047;-87
2022/03/06 09:52:43;;;;;;;12.13;6.70;;;9.70;94.50;;;;;;5108767;28;20071;-87
2022/03/06 09:55:12;;;;;;;11.02;6.70;;;9.70;95.50;;;;;;5107433;28;20464;-86
2022/03/06 09:57:57;;;;;;;9.73;6.50;;;9.70;94.60;;;;;;5108113;28;20126;-85
2022/03/06 10:00:39;;;;;;;8.60;6.20;;;9.80;94.30;;;;;;5114299;27;20549;-87
2022/03/06 10:03:18;;;;;;;10.10;6.30;;;9.90;94.60;;;;;;5125087;27;20079;-88
2022/03/06 10:05:50;;;;;;;9.98;6.22;;;10.00;93.10;;;;;;5120309;28;20047;-85
2022/03/06 10:08:24;;;;;;;9.98;6.43;;;10.00;93.60;;;;;;5107627;28;20054;-91
2022/03/06 10:10:54;;;;;;;9.48;6.15;;;10.10;93.40;;;;;;5125319;27;20094;-89
2022/03/06 10:13:32;;;;;;;10.32;6.38;;;10.10;93.20;;;;;;5124198;27;20054;-89
2022/03/06 10:16:08;;;;;;;8.88;6.20;;;10.20;92.30;;;;;;5123324;27;20100;-92
2022/03/06 10:18:42;;;;;;;11.43;6.25;;;10.40;92.40;;;;;;5105910;27;20048;-91
2022/03/06 10:21:13;;;;;;;9.57;6.53;;;10.40;91.70;;;;;;5117374;27;20127;-90
2022/03/06 10:23:46;;;;;;;8.25;6.05;;;10.40;91.40;;;;;;5116368;27;20396;-87
2022/03/06 10:26:16;;;;;;;12.40;5.82;;;10.40;90.90;;;;;;5106576;28;20067;-88
2022/03/06 10:28:49;;;;;;;7.10;5.32;;;10.40;91.40;;;;;;5117295;27;20134;-85
2022/03/06 10:31:18;;;;;;;11.15;5.72;;;10.30;89.90;;;;;;5124355;27;20144;-89
2022/03/06 10:33:59;;;;;;;7.70;5.90;;;10.40;90.70;;;;;;5098058;27;20043;-84
2022/03/06 10:36:33;;;;;;;10.30;5.55;;;10.30;90.30;;;;;;5129582;27;20108;-86
2022/03/06 10:39:03;;;;;;;8.73;5.28;;;10.40;89.90;;;;;;5119297;27;20065;-86
2022/03/06 10:41:35;;;;;;;7.53;5.63;;;10.50;90.50;;;;;;5123544;27;20066;-87
2022/03/06 10:44:08;;;;;;;8.15;5.57;;;10.60;89.30;;;;;;5130624;27;20069;-88
2022/03/06 10:46:37;;;;;;;8.02;5.13;;;10.60;88.30;;;;;;5104579;28;20059;-90
2022/03/06 10:49:12;;;;;;;8.00;4.90;;;10.60;87.60;;;;;;5107030;27;20067;-88
2022/03/06 10:51:43;;;;;;;7.60;5.53;;;10.70;87.70;;;;;;5080845;28;20287;-89
2022/03/06 10:54:14;;;;;;;8.73;5.97;;;10.90;87.60;;;;;;5106625;28;20039;-89
2022/03/06 10:56:44;;;;;;;8.77;5.53;;;11.00;88.00;;;;;;5107461;27;20040;-88
2022/03/06 10:59:21;;;;;;;9.30;5.28;;;11.10;88.20;;;;;;5094775;27;20050;-92
2022/03/06 11:01:50;;;;;;;8.35;5.35;;;11.20;87.60;;;;;;5107562;27;20047;-90
2022/03/06 11:04:20;;;;;;;9.35;5.72;;;11.20;87.20;;;;;;5105792;27;20040;-89
2022/03/06 11:06:54;;;;;;;8.68;5.75;;;11.20;87.60;;;;;;5106776;28;20588;-89
2022/03/06 11:09:22;;;;;;;7.88;5.55;;;11.30;88.20;;;;;;5092051;27;20046;-88
2022/03/06 11:11:51;;;;;;;8.40;6.13;;;11.50;87.90;;;;;;5089119;28;20044;-84
2022/03/06 11:14:22;;;;;;;8.25;5.20;;;11.60;87.70;;;;;;5084976;27;20079;-92
2022/03/06 11:16:50;;;;;;;8.52;5.85;;;11.70;87.70;;;;;;5093401;28;20035;-86
2022/03/06 11:19:18;;;;;;;7.05;5.22;;;11.70;87.00;;;;;;5110267;27;20047;-90
2022/03/06 11:21:50;;;;;;;9.18;6.00;;;11.60;87.20;;;;;;5089445;28;20092;-93
2022/03/06 11:24:20;;;;;;;9.63;6.30;;;11.60;87.40;;;;;;5116725;27;20092;-92
2022/03/06 11:27:27;;;;;;;9.75;6.53;;;11.70;86.50;;;;;;5104608;28;20059;-94
2022/03/06 11:30:20;;;;;;;8.60;6.03;;;11.90;86.60;;;;;;5111481;27;20549;-96
2022/03/06 11:33:00;;;;;;;8.18;6.05;;;11.80;85.70;;;;;;5105937;27;20492;-94
2022/03/06 11:35:35;;;;;;;10.07;6.40;;;11.90;85.60;;;;;;5107527;27;20071;-91
2022/03/06 11:38:04;;;;;;;14.68;7.55;;;12.00;85.60;;;;;;5108924;28;20047;-91
2022/03/06 11:40:44;;;;;;;10.73;6.88;;;12.00;85.40;;;;;;5111758;27;20505;-93
2022/03/06 11:43:31;;;;;;;9.75;7.10;;;12.00;85.40;;;;;;5108765;27;20097;-93
2022/03/06 11:46:12;;;;;;;8.43;5.65;;;12.00;86.10;;;;;;5106925;27;20162;-95
2022/03/06 11:49:10;;;;;;;8.27;5.70;;;12.00;85.30;;;;;;5094483;28;20063;-94
2022/03/06 11:51:41;;;;;;;7.68;5.90;;;11.90;85.30;;;;;;5095198;28;20043;-91
2022/03/06 11:54:13;;;;;;;9.48;6.20;;;11.70;85.40;;;;;;5105336;27;20039;-93
2022/03/06 11:56:49;;;;;;;9.00;5.60;;;11.90;85.90;;;;;;5108293;28;20061;-92
2022/03/06 11:59:44;;;;;;;6.80;5.10;;;12.10;86.00;;;;;;5102722;28;20035;-92
2022/03/06 12:02:20;;;;;;;10.02;6.15;;;12.00;85.10;;;;;;5108559;28;20035;-95
2022/03/06 12:04:56;;;;;;;9.18;5.63;;;12.20;84.90;;;;;;5119537;28;20047;-92
2022/03/06 12:07:26;;;;;;;7.17;5.63;;;12.20;84.20;;;;;;5116474;27;20058;-92
2022/03/06 12:09:54;;;;;;;10.18;6.35;;;12.40;83.90;;;;;;5110060;27;20094;-93
2022/03/06 12:12:25;;;;;;;10.50;6.53;;;12.50;83.60;;;;;;5098661;28;20037;-94
2022/03/06 12:14:58;;;;;;;8.85;5.68;;;12.70;84.30;;;;;;5097672;28;20130;-95
2022/03/06 12:17:36;;;;;;;6.90;5.30;;;12.60;83.70;;;;;;5092144;28;20112;-93
2022/03/06 12:20:23;;;;;;;9.77;5.43;;;12.70;83.50;;;;;;5094202;28;20047;-94
2022/03/06 12:22:57;;;;;;;12.77;4.95;;;12.60;83.00;;;;;;5109143;27;20488;-91
2022/03/06 12:25:29;;;;;;;7.10;5.45;;;12.60;82.90;;;;;;5107396;27;20629;-90
2022/03/06 12:28:18;;;;;;;8.43;5.22;;;12.70;83.20;;;;;;5097560;27;20093;-88
2022/03/06 12:30:47;;;;;;;6.95;5.10;;;12.80;83.20;;;;;;5114306;27;20125;-90
2022/03/06 12:33:32;;;;;;;6.57;5.05;;;12.90;83.20;;;;;;5095023;28;20154;-90
2022/03/06 12:36:18;;;;;;;7.70;5.00;;;12.90;82.50;;;;;;5103596;27;20040;-91
2022/03/06 12:38:50;;;;;;;7.90;5.55;;;12.80;82.20;;;;;;5099611;28;20047;-88
2022/03/06 12:41:18;;;;;;;7.90;5.13;;;12.80;82.50;;;;;;5111279;27;20064;-88
2022/03/06 12:43:49;;;;;;;6.90;5.55;;;12.90;82.10;;;;;;5107659;28;20039;-90
2022/03/06 12:46:18;;;;;;;6.53;5.10;;;12.90;81.90;;;;;;5105299;28;20051;-89
2022/03/06 12:48:49;;;;;;;6.85;5.63;;;13.00;82.30;;;;;;5098727;28;20043;-87
2022/03/06 12:51:33;;;;;;;8.35;6.45;;;12.90;81.90;;;;;;5096822;28;20449;-90
2022/03/06 12:54:02;;;;;;;6.93;5.18;;;13.20;81.60;;;;;;5104919;28;20061;-90
2022/03/06 12:56:35;;;;;;;10.02;5.93;;;13.40;81.70;;;;;;5105613;27;20040;-84
2022/03/06 12:59:09;;;;;;;7.38;5.25;;;13.10;81.30;;;;;;5100509;27;20044;-84
2022/03/06 13:01:39;;;;;;;11.15;6.43;;;13.00;81.40;;;;;;5098216;27;20043;-86
2022/03/06 13:04:10;;;;;;;10.43;6.07;;;12.90;82.30;;;;;;5101449;27;20069;-87